sensor_id;sensor_type;location;lat;lon;timestamp;P1;durP1;ratioP1;P2;durP2;ratioP2
35893;SDS011;21994;48.204;16.516;2023-06-22T00:02:36;9.93;;;2.15;;
35893;SDS011;21994;48.204;16.516;2023-06-22T00:05:08;3.40;;;1.42;;
35893;SDS011;21994;48.204;16.516;2023-06-22T00:07:41;4.47;;;2.35;;
35893;SDS011;21994;48.204;16.516;2023-06-22T00:10:07;6.82;;;1.45;;
35893;SDS011;21994;48.204;16.516;2023-06-22T00:12:34;4.82;;;2.75;;
35893;SDS011;21994;48.204;16.516;2023-06-22T00:15:00;4.57;;;1.13;;
35893;SDS011;21994;48.204;16.516;2023-06-22T00:17:26;7.88;;;1.30;;
35893;SDS011;21994;48.204;16.516;2023-06-22T00:19:52;4.00;;;1.27;;
35893;SDS011;21994;48.204;16.516;2023-06-22T00:22:20;6.35;;;1.15;;
35893;SDS011;21994;48.204;16.516;2023-06-22T00:24:54;3.08;;;1.40;;
35893;SDS011;21994;48.204;16.516;2023-06-22T00:27:21;4.32;;;1.50;;
35893;SDS011;21994;48.204;16.516;2023-06-22T00:29:47;4.88;;;2.38;;
35893;SDS011;21994;48.204;16.516;2023-06-22T00:32:12;3.42;;;1.30;;
35893;SDS011;21994;48.204;16.516;2023-06-22T00:34:38;3.97;;;1.60;;
35893;SDS011;21994;48.204;16.516;2023-06-22T00:37:04;1.92;;;0.95;;
35893;SDS011;21994;48.204;16.516;2023-06-22T00:39:30;5.35;;;1.30;;
35893;SDS011;21994;48.204;16.516;2023-06-22T00:41:58;4.65;;;1.75;;
35893;SDS011;21994;48.204;16.516;2023-06-22T00:44:24;4.63;;;1.67;;
35893;SDS011;21994;48.204;16.516;2023-06-22T00:46:54;2.80;;;1.88;;
35893;SDS011;21994;48.204;16.516;2023-06-22T00:49:20;2.58;;;0.98;;
35893;SDS011;21994;48.204;16.516;2023-06-22T00:51:46;6.07;;;1.48;;
35893;SDS011;21994;48.204;16.516;2023-06-22T00:54:13;3.00;;;1.23;;
35893;SDS011;21994;48.204;16.516;2023-06-22T00:56:40;2.95;;;1.17;;
35893;SDS011;21994;48.204;16.516;2023-06-22T00:59:07;1.98;;;1.13;;
35893;SDS011;21994;48.204;16.516;2023-06-22T01:01:37;2.22;;;1.15;;
35893;SDS011;21994;48.204;16.516;2023-06-22T01:04:06;4.25;;;1.40;;
35893;SDS011;21994;48.204;16.516;2023-06-22T01:06:34;3.50;;;1.20;;
35893;SDS011;21994;48.204;16.516;2023-06-22T01:09:06;3.45;;;1.20;;
35893;SDS011;21994;48.204;16.516;2023-06-22T01:12:03;4.78;;;2.28;;
35893;SDS011;21994;48.204;16.516;2023-06-22T01:17:05;1.50;;;0.95;;
35893;SDS011;21994;48.204;16.516;2023-06-22T01:19:49;4.68;;;1.67;;
35893;SDS011;21994;48.204;16.516;2023-06-22T01:22:26;5.55;;;1.35;;
35893;SDS011;21994;48.204;16.516;2023-06-22T01:30:39;2.85;;;2.17;;
35893;SDS011;21994;48.204;16.516;2023-06-22T01:33:10;3.30;;;1.80;;
35893;SDS011;21994;48.204;16.516;2023-06-22T01:35:38;4.60;;;1.35;;
35893;SDS011;21994;48.204;16.516;2023-06-22T01:38:04;5.35;;;1.45;;
35893;SDS011;21994;48.204;16.516;2023-06-22T01:40:31;2.17;;;1.58;;
35893;SDS011;21994;48.204;16.516;2023-06-22T01:43:02;2.38;;;1.27;;
35893;SDS011;21994;48.204;16.516;2023-06-22T01:45:29;5.15;;;2.70;;
35893;SDS011;21994;48.204;16.516;2023-06-22T01:47:55;3.92;;;1.40;;
35893;SDS011;21994;48.204;16.516;2023-06-22T01:50:22;2.95;;;1.15;;
35893;SDS011;21994;48.204;16.516;2023-06-22T01:52:48;8.73;;;0.95;;
35893;SDS011;21994;48.204;16.516;2023-06-22T01:55:13;4.60;;;1.98;;
35893;SDS011;21994;48.204;16.516;2023-06-22T01:57:39;4.43;;;1.08;;
35893;SDS011;21994;48.204;16.516;2023-06-22T02:00:18;6.90;;;1.70;;
35893;SDS011;21994;48.204;16.516;2023-06-22T02:05:40;3.20;;;1.45;;
35893;SDS011;21994;48.204;16.516;2023-06-22T02:08:19;3.33;;;1.65;;
35893;SDS011;21994;48.204;16.516;2023-06-22T02:10:57;8.30;;;1.33;;
35893;SDS011;21994;48.204;16.516;2023-06-22T02:13:25;5.70;;;1.67;;
35893;SDS011;21994;48.204;16.516;2023-06-22T02:15:52;3.05;;;1.58;;
35893;SDS011;21994;48.204;16.516;2023-06-22T02:18:19;2.33;;;1.73;;
35893;SDS011;21994;48.204;16.516;2023-06-22T02:20:45;5.25;;;1.85;;
35893;SDS011;21994;48.204;16.516;2023-06-22T02:23:11;3.47;;;1.45;;
35893;SDS011;21994;48.204;16.516;2023-06-22T02:25:37;8.00;;;1.92;;
35893;SDS011;21994;48.204;16.516;2023-06-22T02:28:04;3.47;;;1.90;;
35893;SDS011;21994;48.204;16.516;2023-06-22T02:30:31;4.55;;;1.52;;
35893;SDS011;21994;48.204;16.516;2023-06-22T02:32:57;3.55;;;1.42;;
35893;SDS011;21994;48.204;16.516;2023-06-22T02:35:29;6.20;;;1.65;;
35893;SDS011;21994;48.204;16.516;2023-06-22T02:37:59;4.07;;;1.42;;
35893;SDS011;21994;48.204;16.516;2023-06-22T02:40:27;4.38;;;1.05;;
35893;SDS011;21994;48.204;16.516;2023-06-22T02:42:54;1.85;;;1.40;;
35893;SDS011;21994;48.204;16.516;2023-06-22T02:45:23;3.30;;;2.17;;
35893;SDS011;21994;48.204;16.516;2023-06-22T02:47:49;2.83;;;1.50;;
35893;SDS011;21994;48.204;16.516;2023-06-22T02:50:15;1.60;;;1.23;;
35893;SDS011;21994;48.204;16.516;2023-06-22T02:52:41;2.92;;;1.58;;
35893;SDS011;21994;48.204;16.516;2023-06-22T02:55:07;7.97;;;1.75;;
35893;SDS011;21994;48.204;16.516;2023-06-22T02:57:33;4.13;;;1.35;;
35893;SDS011;21994;48.204;16.516;2023-06-22T02:59:59;2.50;;;1.33;;
35893;SDS011;21994;48.204;16.516;2023-06-22T03:02:28;4.43;;;1.65;;
35893;SDS011;21994;48.204;16.516;2023-06-22T03:04:54;6.47;;;1.73;;
35893;SDS011;21994;48.204;16.516;2023-06-22T03:07:20;4.10;;;1.95;;
35893;SDS011;21994;48.204;16.516;2023-06-22T03:09:46;4.18;;;1.48;;
35893;SDS011;21994;48.204;16.516;2023-06-22T03:12:12;6.45;;;2.10;;
35893;SDS011;21994;48.204;16.516;2023-06-22T03:14:38;8.70;;;2.95;;
35893;SDS011;21994;48.204;16.516;2023-06-22T03:17:04;3.53;;;1.27;;
35893;SDS011;21994;48.204;16.516;2023-06-22T03:19:31;2.10;;;1.15;;
35893;SDS011;21994;48.204;16.516;2023-06-22T03:21:57;3.10;;;1.63;;
35893;SDS011;21994;48.204;16.516;2023-06-22T03:24:25;9.23;;;2.38;;
35893;SDS011;21994;48.204;16.516;2023-06-22T03:26:56;6.20;;;1.75;;
35893;SDS011;21994;48.204;16.516;2023-06-22T03:29:22;4.55;;;1.70;;
35893;SDS011;21994;48.204;16.516;2023-06-22T03:31:49;3.78;;;1.67;;
35893;SDS011;21994;48.204;16.516;2023-06-22T03:34:14;6.47;;;2.15;;
35893;SDS011;21994;48.204;16.516;2023-06-22T03:36:40;10.98;;;1.52;;
35893;SDS011;21994;48.204;16.516;2023-06-22T03:39:07;4.45;;;1.17;;
35893;SDS011;21994;48.204;16.516;2023-06-22T03:41:36;4.15;;;1.33;;
35893;SDS011;21994;48.204;16.516;2023-06-22T03:44:02;5.43;;;1.85;;
35893;SDS011;21994;48.204;16.516;2023-06-22T03:46:28;2.97;;;1.05;;
35893;SDS011;21994;48.204;16.516;2023-06-22T03:48:54;5.40;;;2.55;;
35893;SDS011;21994;48.204;16.516;2023-06-22T03:51:19;4.68;;;1.88;;
35893;SDS011;21994;48.204;16.516;2023-06-22T03:53:45;9.27;;;1.58;;
35893;SDS011;21994;48.204;16.516;2023-06-22T03:56:13;6.70;;;2.30;;
35893;SDS011;21994;48.204;16.516;2023-06-22T03:58:45;10.68;;;2.80;;
35893;SDS011;21994;48.204;16.516;2023-06-22T04:01:11;4.60;;;2.03;;
35893;SDS011;21994;48.204;16.516;2023-06-22T04:03:37;3.53;;;1.52;;
35893;SDS011;21994;48.204;16.516;2023-06-22T04:06:04;10.50;;;2.15;;
35893;SDS011;21994;48.204;16.516;2023-06-22T04:08:30;4.60;;;1.73;;
35893;SDS011;21994;48.204;16.516;2023-06-22T04:10:57;4.15;;;1.73;;
35893;SDS011;21994;48.204;16.516;2023-06-22T04:13:23;11.68;;;2.47;;
35893;SDS011;21994;48.204;16.516;2023-06-22T04:15:49;4.75;;;2.30;;
35893;SDS011;21994;48.204;16.516;2023-06-22T04:18:15;5.32;;;1.75;;
35893;SDS011;21994;48.204;16.516;2023-06-22T04:20:41;9.07;;;2.45;;
35893;SDS011;21994;48.204;16.516;2023-06-22T04:23:09;8.73;;;1.45;;
35893;SDS011;21994;48.204;16.516;2023-06-22T04:25:34;7.45;;;2.13;;
35893;SDS011;21994;48.204;16.516;2023-06-22T04:28:00;4.90;;;1.70;;
35893;SDS011;21994;48.204;16.516;2023-06-22T04:30:28;5.50;;;1.67;;
35893;SDS011;21994;48.204;16.516;2023-06-22T04:32:56;7.15;;;1.67;;
35893;SDS011;21994;48.204;16.516;2023-06-22T04:35:23;4.40;;;1.88;;
35893;SDS011;21994;48.204;16.516;2023-06-22T04:37:50;5.72;;;2.33;;
35893;SDS011;21994;48.204;16.516;2023-06-22T04:40:21;8.90;;;2.22;;
35893;SDS011;21994;48.204;16.516;2023-06-22T04:42:48;4.63;;;2.78;;
35893;SDS011;21994;48.204;16.516;2023-06-22T04:45:18;6.73;;;2.43;;
35893;SDS011;21994;48.204;16.516;2023-06-22T04:47:45;6.10;;;2.60;;
35893;SDS011;21994;48.204;16.516;2023-06-22T04:50:11;12.35;;;2.42;;
35893;SDS011;21994;48.204;16.516;2023-06-22T04:52:40;4.38;;;2.00;;
35893;SDS011;21994;48.204;16.516;2023-06-22T04:55:06;4.60;;;1.88;;
35893;SDS011;21994;48.204;16.516;2023-06-22T04:57:33;3.35;;;2.40;;
35893;SDS011;21994;48.204;16.516;2023-06-22T05:00:00;5.03;;;2.30;;
35893;SDS011;21994;48.204;16.516;2023-06-22T05:02:37;13.98;;;2.83;;
35893;SDS011;21994;48.204;16.516;2023-06-22T05:05:04;11.50;;;2.53;;
35893;SDS011;21994;48.204;16.516;2023-06-22T05:07:33;13.93;;;3.65;;
35893;SDS011;21994;48.204;16.516;2023-06-22T05:10:00;7.43;;;2.33;;
35893;SDS011;21994;48.204;16.516;2023-06-22T05:12:30;5.72;;;2.47;;
35893;SDS011;21994;48.204;16.516;2023-06-22T05:14:56;6.47;;;2.97;;
35893;SDS011;21994;48.204;16.516;2023-06-22T05:17:22;4.18;;;2.30;;
35893;SDS011;21994;48.204;16.516;2023-06-22T05:19:48;12.40;;;3.13;;
35893;SDS011;21994;48.204;16.516;2023-06-22T05:22:15;5.07;;;2.28;;
35893;SDS011;21994;48.204;16.516;2023-06-22T05:24:41;5.38;;;2.25;;
35893;SDS011;21994;48.204;16.516;2023-06-22T05:27:08;7.18;;;3.10;;
35893;SDS011;21994;48.204;16.516;2023-06-22T05:29:35;7.07;;;3.05;;
35893;SDS011;21994;48.204;16.516;2023-06-22T05:32:02;6.45;;;2.72;;
35893;SDS011;21994;48.204;16.516;2023-06-22T05:34:29;7.63;;;3.45;;
35893;SDS011;21994;48.204;16.516;2023-06-22T05:36:55;10.55;;;2.40;;
35893;SDS011;21994;48.204;16.516;2023-06-22T05:39:21;6.88;;;2.95;;
35893;SDS011;21994;48.204;16.516;2023-06-22T05:41:46;8.13;;;2.40;;
35893;SDS011;21994;48.204;16.516;2023-06-22T05:44:12;6.68;;;3.17;;
35893;SDS011;21994;48.204;16.516;2023-06-22T05:46:42;10.00;;;3.60;;
35893;SDS011;21994;48.204;16.516;2023-06-22T05:49:13;9.77;;;3.20;;
35893;SDS011;21994;48.204;16.516;2023-06-22T05:51:40;8.75;;;3.83;;
35893;SDS011;21994;48.204;16.516;2023-06-22T05:54:06;4.18;;;2.80;;
35893;SDS011;21994;48.204;16.516;2023-06-22T05:56:33;5.60;;;2.58;;
35893;SDS011;21994;48.204;16.516;2023-06-22T05:59:00;14.02;;;5.05;;
35893;SDS011;21994;48.204;16.516;2023-06-22T06:01:25;12.63;;;4.57;;
35893;SDS011;21994;48.204;16.516;2023-06-22T06:03:52;6.47;;;3.22;;
35893;SDS011;21994;48.204;16.516;2023-06-22T06:06:18;10.57;;;3.72;;
35893;SDS011;21994;48.204;16.516;2023-06-22T06:08:54;14.15;;;4.20;;
35893;SDS011;21994;48.204;16.516;2023-06-22T06:11:20;8.25;;;3.13;;
35893;SDS011;21994;48.204;16.516;2023-06-22T06:13:47;10.40;;;3.78;;
35893;SDS011;21994;48.204;16.516;2023-06-22T06:16:12;9.48;;;2.83;;
35893;SDS011;21994;48.204;16.516;2023-06-22T06:18:38;7.75;;;3.72;;
35893;SDS011;21994;48.204;16.516;2023-06-22T06:21:04;7.80;;;3.58;;
35893;SDS011;21994;48.204;16.516;2023-06-22T06:23:30;7.00;;;3.10;;
35893;SDS011;21994;48.204;16.516;2023-06-22T06:25:56;16.25;;;3.72;;
35893;SDS011;21994;48.204;16.516;2023-06-22T06:28:24;7.43;;;3.47;;
35893;SDS011;21994;48.204;16.516;2023-06-22T06:30:50;12.25;;;4.43;;
35893;SDS011;21994;48.204;16.516;2023-06-22T06:33:17;8.10;;;4.03;;
35893;SDS011;21994;48.204;16.516;2023-06-22T06:35:43;13.85;;;4.30;;
35893;SDS011;21994;48.204;16.516;2023-06-22T06:38:08;12.52;;;3.78;;
35893;SDS011;21994;48.204;16.516;2023-06-22T06:40:35;14.65;;;5.57;;
35893;SDS011;21994;48.204;16.516;2023-06-22T06:43:01;10.85;;;3.45;;
35893;SDS011;21994;48.204;16.516;2023-06-22T06:45:27;8.20;;;4.35;;
35893;SDS011;21994;48.204;16.516;2023-06-22T06:47:55;14.85;;;3.80;;
35893;SDS011;21994;48.204;16.516;2023-06-22T06:50:21;13.57;;;4.00;;
35893;SDS011;21994;48.204;16.516;2023-06-22T06:52:47;7.55;;;3.83;;
35893;SDS011;21994;48.204;16.516;2023-06-22T06:55:15;17.13;;;4.97;;
35893;SDS011;21994;48.204;16.516;2023-06-22T06:57:41;8.48;;;3.50;;
35893;SDS011;21994;48.204;16.516;2023-06-22T07:00:08;5.28;;;2.70;;
35893;SDS011;21994;48.204;16.516;2023-06-22T07:02:39;7.43;;;3.83;;
35893;SDS011;21994;48.204;16.516;2023-06-22T07:05:07;7.80;;;4.13;;
35893;SDS011;21994;48.204;16.516;2023-06-22T07:07:37;8.73;;;3.57;;
35893;SDS011;21994;48.204;16.516;2023-06-22T07:10:04;7.88;;;4.93;;
35893;SDS011;21994;48.204;16.516;2023-06-22T07:12:31;10.48;;;4.38;;
35893;SDS011;21994;48.204;16.516;2023-06-22T07:15:02;14.13;;;5.18;;
35893;SDS011;21994;48.204;16.516;2023-06-22T07:17:30;14.73;;;3.60;;
35893;SDS011;21994;48.204;16.516;2023-06-22T07:19:56;9.30;;;5.00;;
35893;SDS011;21994;48.204;16.516;2023-06-22T07:22:22;10.00;;;3.63;;
35893;SDS011;21994;48.204;16.516;2023-06-22T07:24:48;8.25;;;4.05;;
35893;SDS011;21994;48.204;16.516;2023-06-22T07:27:14;8.50;;;4.13;;
35893;SDS011;21994;48.204;16.516;2023-06-22T07:29:44;15.55;;;4.10;;
35893;SDS011;21994;48.204;16.516;2023-06-22T07:32:10;7.70;;;3.47;;
35893;SDS011;21994;48.204;16.516;2023-06-22T07:34:36;8.80;;;2.75;;
35893;SDS011;21994;48.204;16.516;2023-06-22T07:37:02;10.75;;;3.53;;
35893;SDS011;21994;48.204;16.516;2023-06-22T07:39:29;8.30;;;4.03;;
35893;SDS011;21994;48.204;16.516;2023-06-22T07:41:55;7.15;;;2.85;;
35893;SDS011;21994;48.204;16.516;2023-06-22T07:44:21;11.55;;;3.38;;
35893;SDS011;21994;48.204;16.516;2023-06-22T07:46:47;10.65;;;2.92;;
35893;SDS011;21994;48.204;16.516;2023-06-22T07:49:13;5.10;;;2.97;;
35893;SDS011;21994;48.204;16.516;2023-06-22T07:51:39;8.57;;;2.72;;
35893;SDS011;21994;48.204;16.516;2023-06-22T07:54:05;5.47;;;2.90;;
35893;SDS011;21994;48.204;16.516;2023-06-22T07:56:31;5.10;;;2.45;;
35893;SDS011;21994;48.204;16.516;2023-06-22T07:58:58;6.25;;;3.20;;
35893;SDS011;21994;48.204;16.516;2023-06-22T08:01:25;5.72;;;3.22;;
35893;SDS011;21994;48.204;16.516;2023-06-22T08:03:51;6.20;;;2.88;;
35893;SDS011;21994;48.204;16.516;2023-06-22T08:06:17;6.55;;;3.13;;
35893;SDS011;21994;48.204;16.516;2023-06-22T08:08:43;5.93;;;3.17;;
35893;SDS011;21994;48.204;16.516;2023-06-22T08:11:13;6.40;;;2.95;;
35893;SDS011;21994;48.204;16.516;2023-06-22T08:13:39;5.28;;;2.58;;
35893;SDS011;21994;48.204;16.516;2023-06-22T08:16:05;5.75;;;2.60;;
35893;SDS011;21994;48.204;16.516;2023-06-22T08:18:32;7.10;;;2.90;;
35893;SDS011;21994;48.204;16.516;2023-06-22T08:20:58;7.03;;;2.63;;
35893;SDS011;21994;48.204;16.516;2023-06-22T08:23:24;4.32;;;2.15;;
35893;SDS011;21994;48.204;16.516;2023-06-22T08:25:50;5.40;;;2.10;;
35893;SDS011;21994;48.204;16.516;2023-06-22T08:28:16;5.38;;;2.70;;
35893;SDS011;21994;48.204;16.516;2023-06-22T08:30:42;4.95;;;2.10;;
35893;SDS011;21994;48.204;16.516;2023-06-22T08:33:11;5.05;;;2.13;;
35893;SDS011;21994;48.204;16.516;2023-06-22T08:35:37;7.88;;;2.42;;
35893;SDS011;21994;48.204;16.516;2023-06-22T08:38:03;4.93;;;2.67;;
35893;SDS011;21994;48.204;16.516;2023-06-22T08:40:29;6.45;;;2.80;;
35893;SDS011;21994;48.204;16.516;2023-06-22T08:42:55;7.85;;;3.03;;
35893;SDS011;21994;48.204;16.516;2023-06-22T08:45:21;8.43;;;2.92;;
35893;SDS011;21994;48.204;16.516;2023-06-22T08:47:47;6.03;;;2.22;;
35893;SDS011;21994;48.204;16.516;2023-06-22T08:50:13;5.43;;;2.33;;
35893;SDS011;21994;48.204;16.516;2023-06-22T08:52:39;3.92;;;2.03;;
35893;SDS011;21994;48.204;16.516;2023-06-22T08:55:10;4.22;;;2.50;;
35893;SDS011;21994;48.204;16.516;2023-06-22T08:57:36;8.50;;;2.35;;
35893;SDS011;21994;48.204;16.516;2023-06-22T09:00:05;5.38;;;2.33;;
35893;SDS011;21994;48.204;16.516;2023-06-22T09:02:41;4.18;;;2.47;;
35893;SDS011;21994;48.204;16.516;2023-06-22T09:05:11;4.93;;;1.83;;
35893;SDS011;21994;48.204;16.516;2023-06-22T09:07:37;3.53;;;2.22;;
35893;SDS011;21994;48.204;16.516;2023-06-22T09:10:04;5.78;;;1.80;;
35893;SDS011;21994;48.204;16.516;2023-06-22T09:12:31;3.95;;;2.17;;
35893;SDS011;21994;48.204;16.516;2023-06-22T09:14:58;3.08;;;1.90;;
35893;SDS011;21994;48.204;16.516;2023-06-22T09:17:26;4.35;;;1.60;;
35893;SDS011;21994;48.204;16.516;2023-06-22T09:19:52;9.43;;;2.05;;
35893;SDS011;21994;48.204;16.516;2023-06-22T09:22:18;4.35;;;1.92;;
35893;SDS011;21994;48.204;16.516;2023-06-22T09:24:44;3.55;;;2.20;;
35893;SDS011;21994;48.204;16.516;2023-06-22T09:27:10;8.77;;;2.17;;
35893;SDS011;21994;48.204;16.516;2023-06-22T09:29:36;3.53;;;2.42;;
35893;SDS011;21994;48.204;16.516;2023-06-22T09:32:02;4.13;;;2.25;;
35893;SDS011;21994;48.204;16.516;2023-06-22T09:34:29;7.05;;;2.13;;
35893;SDS011;21994;48.204;16.516;2023-06-22T09:36:56;4.70;;;1.80;;
35893;SDS011;21994;48.204;16.516;2023-06-22T09:39:25;4.53;;;1.73;;
35893;SDS011;21994;48.204;16.516;2023-06-22T09:41:51;6.85;;;1.90;;
35893;SDS011;21994;48.204;16.516;2023-06-22T09:44:17;4.30;;;2.00;;
35893;SDS011;21994;48.204;16.516;2023-06-22T09:46:43;5.78;;;2.08;;
35893;SDS011;21994;48.204;16.516;2023-06-22T09:49:09;10.48;;;1.92;;
35893;SDS011;21994;48.204;16.516;2023-06-22T09:51:35;4.18;;;2.22;;
35893;SDS011;21994;48.204;16.516;2023-06-22T09:54:01;2.28;;;1.58;;
35893;SDS011;21994;48.204;16.516;2023-06-22T09:56:27;3.63;;;1.75;;
35893;SDS011;21994;48.204;16.516;2023-06-22T09:58:54;5.13;;;1.60;;
35893;SDS011;21994;48.204;16.516;2023-06-22T10:01:23;2.65;;;1.63;;
35893;SDS011;21994;48.204;16.516;2023-06-22T10:03:50;3.83;;;1.27;;
35893;SDS011;21994;48.204;16.516;2023-06-22T10:06:21;3.53;;;1.80;;
35893;SDS011;21994;48.204;16.516;2023-06-22T10:08:47;4.45;;;1.58;;
35893;SDS011;21994;48.204;16.516;2023-06-22T10:11:15;1.98;;;1.00;;
35893;SDS011;21994;48.204;16.516;2023-06-22T10:13:41;2.95;;;1.25;;
35893;SDS011;21994;48.204;16.516;2023-06-22T10:16:07;1.30;;;0.68;;
35893;SDS011;21994;48.204;16.516;2023-06-22T10:18:33;5.28;;;1.33;;
35893;SDS011;21994;48.204;16.516;2023-06-22T10:20:59;2.53;;;1.10;;
35893;SDS011;21994;48.204;16.516;2023-06-22T10:23:25;4.10;;;1.40;;
35893;SDS011;21994;48.204;16.516;2023-06-22T10:25:51;3.55;;;1.17;;
35893;SDS011;21994;48.204;16.516;2023-06-22T10:28:17;3.78;;;1.27;;
35893;SDS011;21994;48.204;16.516;2023-06-22T10:30:43;1.25;;;0.75;;
35893;SDS011;21994;48.204;16.516;2023-06-22T10:33:10;2.20;;;1.58;;
35893;SDS011;21994;48.204;16.516;2023-06-22T10:35:37;1.75;;;1.02;;
35893;SDS011;21994;48.204;16.516;2023-06-22T10:38:03;1.38;;;0.93;;
35893;SDS011;21994;48.204;16.516;2023-06-22T10:40:30;5.35;;;1.20;;
35893;SDS011;21994;48.204;16.516;2023-06-22T10:42:56;1.67;;;1.25;;
35893;SDS011;21994;48.204;16.516;2023-06-22T10:45:22;1.65;;;1.00;;
35893;SDS011;21994;48.204;16.516;2023-06-22T10:47:48;1.67;;;1.25;;
35893;SDS011;21994;48.204;16.516;2023-06-22T10:50:14;1.95;;;1.25;;
35893;SDS011;21994;48.204;16.516;2023-06-22T10:52:40;3.53;;;1.00;;
35893;SDS011;21994;48.204;16.516;2023-06-22T10:55:09;3.70;;;1.55;;
35893;SDS011;21994;48.204;16.516;2023-06-22T10:57:36;3.50;;;1.20;;
35893;SDS011;21994;48.204;16.516;2023-06-22T11:00:02;1.15;;;0.90;;
35893;SDS011;21994;48.204;16.516;2023-06-22T11:02:31;5.50;;;1.52;;
35893;SDS011;21994;48.204;16.516;2023-06-22T11:04:57;3.30;;;1.90;;
35893;SDS011;21994;48.204;16.516;2023-06-22T11:07:25;2.85;;;1.70;;
35893;SDS011;21994;48.204;16.516;2023-06-22T11:09:54;2.47;;;1.23;;
35893;SDS011;21994;48.204;16.516;2023-06-22T11:12:20;3.25;;;1.48;;
35893;SDS011;21994;48.204;16.516;2023-06-22T11:14:45;2.67;;;1.60;;
35893;SDS011;21994;48.204;16.516;2023-06-22T11:17:12;3.95;;;1.20;;
35893;SDS011;21994;48.204;16.516;2023-06-22T11:19:38;1.67;;;1.25;;
35893;SDS011;21994;48.204;16.516;2023-06-22T11:22:04;3.58;;;1.30;;
35893;SDS011;21994;48.204;16.516;2023-06-22T11:24:31;4.10;;;1.85;;
35893;SDS011;21994;48.204;16.516;2023-06-22T11:26:57;2.10;;;1.45;;
35893;SDS011;21994;48.204;16.516;2023-06-22T11:29:23;2.63;;;1.38;;
35893;SDS011;21994;48.204;16.516;2023-06-22T11:31:49;4.95;;;1.30;;
35893;SDS011;21994;48.204;16.516;2023-06-22T11:34:15;3.17;;;1.40;;
35893;SDS011;21994;48.204;16.516;2023-06-22T11:36:41;3.25;;;1.17;;
35893;SDS011;21994;48.204;16.516;2023-06-22T11:39:08;2.53;;;1.20;;
35893;SDS011;21994;48.204;16.516;2023-06-22T11:41:34;2.60;;;1.05;;
35893;SDS011;21994;48.204;16.516;2023-06-22T11:44:00;4.75;;;1.77;;
35893;SDS011;21994;48.204;16.516;2023-06-22T11:46:26;3.70;;;1.40;;
35893;SDS011;21994;48.204;16.516;2023-06-22T11:48:52;2.10;;;1.35;;
35893;SDS011;21994;48.204;16.516;2023-06-22T11:51:18;3.22;;;1.30;;
35893;SDS011;21994;48.204;16.516;2023-06-22T11:53:44;3.42;;;1.52;;
35893;SDS011;21994;48.204;16.516;2023-06-22T11:56:10;3.17;;;1.55;;
35893;SDS011;21994;48.204;16.516;2023-06-22T11:58:36;3.17;;;1.23;;
35893;SDS011;21994;48.204;16.516;2023-06-22T12:01:02;2.08;;;1.05;;
35893;SDS011;21994;48.204;16.516;2023-06-22T12:03:27;3.17;;;1.50;;
35893;SDS011;21994;48.204;16.516;2023-06-22T12:05:54;2.05;;;1.40;;
35893;SDS011;21994;48.204;16.516;2023-06-22T12:08:20;2.63;;;1.10;;
35893;SDS011;21994;48.204;16.516;2023-06-22T12:10:46;2.65;;;2.13;;
35893;SDS011;21994;48.204;16.516;2023-06-22T12:13:12;0.93;;;0.82;;
35893;SDS011;21994;48.204;16.516;2023-06-22T12:15:38;2.08;;;1.55;;
35893;SDS011;21994;48.204;16.516;2023-06-22T12:18:04;4.65;;;1.40;;
35893;SDS011;21994;48.204;16.516;2023-06-22T12:20:30;4.07;;;1.30;;
35893;SDS011;21994;48.204;16.516;2023-06-22T12:22:56;2.15;;;1.00;;
35893;SDS011;21994;48.204;16.516;2023-06-22T12:25:23;3.38;;;1.45;;
35893;SDS011;21994;48.204;16.516;2023-06-22T12:27:49;2.67;;;0.82;;
35893;SDS011;21994;48.204;16.516;2023-06-22T12:30:15;1.98;;;1.20;;
35893;SDS011;21994;48.204;16.516;2023-06-22T12:32:42;2.83;;;1.10;;
35893;SDS011;21994;48.204;16.516;2023-06-22T12:35:08;2.88;;;1.67;;
35893;SDS011;21994;48.204;16.516;2023-06-22T12:37:42;1.65;;;1.23;;
35893;SDS011;21994;48.204;16.516;2023-06-22T12:40:17;0.93;;;0.70;;
35893;SDS011;21994;48.204;16.516;2023-06-22T12:42:44;1.58;;;0.85;;
35893;SDS011;21994;48.204;16.516;2023-06-22T12:45:10;2.85;;;1.10;;
35893;SDS011;21994;48.204;16.516;2023-06-22T12:47:36;1.00;;;0.80;;
35893;SDS011;21994;48.204;16.516;2023-06-22T12:50:03;1.23;;;0.93;;
35893;SDS011;21994;48.204;16.516;2023-06-22T12:52:30;1.70;;;1.00;;
35893;SDS011;21994;48.204;16.516;2023-06-22T12:54:57;2.63;;;2.17;;
35893;SDS011;21994;48.204;16.516;2023-06-22T12:57:23;5.65;;;1.77;;
35893;SDS011;21994;48.204;16.516;2023-06-22T12:59:50;1.38;;;0.90;;
35893;SDS011;21994;48.204;16.516;2023-06-22T13:02:16;3.03;;;1.23;;
35893;SDS011;21994;48.204;16.516;2023-06-22T13:04:42;1.83;;;1.00;;
35893;SDS011;21994;48.204;16.516;2023-06-22T13:07:08;2.60;;;1.60;;
35893;SDS011;21994;48.204;16.516;2023-06-22T13:09:35;2.75;;;1.35;;
35893;SDS011;21994;48.204;16.516;2023-06-22T13:12:02;2.78;;;0.98;;
35893;SDS011;21994;48.204;16.516;2023-06-22T13:14:28;2.05;;;1.10;;
35893;SDS011;21994;48.204;16.516;2023-06-22T13:16:54;2.63;;;1.10;;
35893;SDS011;21994;48.204;16.516;2023-06-22T13:19:20;1.73;;;1.00;;
35893;SDS011;21994;48.204;16.516;2023-06-22T13:21:46;1.23;;;0.90;;
35893;SDS011;21994;48.204;16.516;2023-06-22T13:24:12;3.45;;;1.30;;
35893;SDS011;21994;48.204;16.516;2023-06-22T13:26:38;1.75;;;1.00;;
35893;SDS011;21994;48.204;16.516;2023-06-22T13:29:05;3.15;;;1.15;;
35893;SDS011;21994;48.204;16.516;2023-06-22T13:31:30;1.73;;;0.90;;
35893;SDS011;21994;48.204;16.516;2023-06-22T13:33:56;2.28;;;1.05;;
35893;SDS011;21994;48.204;16.516;2023-06-22T13:36:22;6.50;;;1.58;;
35893;SDS011;21994;48.204;16.516;2023-06-22T13:38:48;2.63;;;1.23;;
35893;SDS011;21994;48.204;16.516;2023-06-22T13:41:14;2.55;;;0.95;;
35893;SDS011;21994;48.204;16.516;2023-06-22T13:43:40;2.15;;;1.35;;
35893;SDS011;21994;48.204;16.516;2023-06-22T13:46:06;3.08;;;1.67;;
35893;SDS011;21994;48.204;16.516;2023-06-22T13:48:35;4.25;;;1.15;;
35893;SDS011;21994;48.204;16.516;2023-06-22T13:51:01;2.47;;;1.38;;
35893;SDS011;21994;48.204;16.516;2023-06-22T13:53:27;2.47;;;0.95;;
35893;SDS011;21994;48.204;16.516;2023-06-22T13:55:53;1.67;;;0.80;;
35893;SDS011;21994;48.204;16.516;2023-06-22T13:58:18;1.58;;;1.48;;
35893;SDS011;21994;48.204;16.516;2023-06-22T14:00:47;2.65;;;1.00;;
35893;SDS011;21994;48.204;16.516;2023-06-22T14:03:14;1.13;;;1.00;;
35893;SDS011;21994;48.204;16.516;2023-06-22T14:05:42;4.43;;;1.45;;
35893;SDS011;21994;48.204;16.516;2023-06-22T14:08:08;2.35;;;1.00;;
35893;SDS011;21994;48.204;16.516;2023-06-22T14:10:34;8.20;;;0.98;;
35893;SDS011;21994;48.204;16.516;2023-06-22T14:13:00;2.42;;;1.13;;
35893;SDS011;21994;48.204;16.516;2023-06-22T14:15:26;2.78;;;0.90;;
35893;SDS011;21994;48.204;16.516;2023-06-22T14:17:52;3.88;;;1.55;;
35893;SDS011;21994;48.204;16.516;2023-06-22T14:20:18;5.18;;;1.35;;
35893;SDS011;21994;48.204;16.516;2023-06-22T14:22:44;2.00;;;1.10;;
35893;SDS011;21994;48.204;16.516;2023-06-22T14:25:10;4.03;;;1.67;;
35893;SDS011;21994;48.204;16.516;2023-06-22T14:27:36;4.78;;;1.05;;
35893;SDS011;21994;48.204;16.516;2023-06-22T14:30:01;2.28;;;1.30;;
35893;SDS011;21994;48.204;16.516;2023-06-22T14:32:29;2.90;;;1.45;;
35893;SDS011;21994;48.204;16.516;2023-06-22T14:34:55;6.00;;;1.60;;
35893;SDS011;21994;48.204;16.516;2023-06-22T14:37:21;4.53;;;1.73;;
35893;SDS011;21994;48.204;16.516;2023-06-22T14:39:47;5.90;;;2.33;;
35893;SDS011;21994;48.204;16.516;2023-06-22T14:42:13;2.47;;;1.45;;
35893;SDS011;21994;48.204;16.516;2023-06-22T14:44:38;2.83;;;1.60;;